createdAt,value
2022-08-28T00:00:41.626Z,99.90
2022-08-28T00:03:11.064Z,99.90
2022-08-28T00:05:39.558Z,99.90
2022-08-28T00:08:08.352Z,99.90
2022-08-28T00:10:35.351Z,99.90
2022-08-28T00:13:02.540Z,99.90
2022-08-28T00:15:32.954Z,99.90
2022-08-28T00:18:00.960Z,99.90
2022-08-28T00:20:29.454Z,99.90
2022-08-28T00:22:56.766Z,99.90
2022-08-28T00:25:25.669Z,99.90
2022-08-28T00:27:55.226Z,99.90
2022-08-28T00:30:27.186Z,99.90
2022-08-28T00:32:56.248Z,99.90
2022-08-28T00:35:23.778Z,99.90
2022-08-28T00:37:52.881Z,99.90
2022-08-28T00:40:30.634Z,99.90
2022-08-28T00:43:02.079Z,99.90
2022-08-28T00:45:29.761Z,99.90
2022-08-28T00:47:56.875Z,99.90
2022-08-28T00:50:27.798Z,99.90
2022-08-28T00:52:59.787Z,99.90
2022-08-28T00:55:28.159Z,99.90
2022-08-28T00:58:00.389Z,99.90
2022-08-28T01:00:29.332Z,99.90
2022-08-28T01:02:56.427Z,99.90
2022-08-28T01:05:23.860Z,99.90
2022-08-28T01:07:52.007Z,99.90
2022-08-28T01:10:23.155Z,99.90
2022-08-28T01:12:50.731Z,99.90
2022-08-28T01:15:20.094Z,99.90
2022-08-28T01:17:50.363Z,99.90
2022-08-28T01:20:22.056Z,99.90
2022-08-28T01:23:15.015Z,99.90
2022-08-28T01:25:42.615Z,99.90
2022-08-28T01:28:12.849Z,99.90
2022-08-28T01:30:42.531Z,99.90
2022-08-28T01:33:09.393Z,99.90
2022-08-28T01:35:43.381Z,99.90
2022-08-28T01:38:10.381Z,99.90
2022-08-28T01:40:40.311Z,99.90
2022-08-28T01:43:10.536Z,99.90
2022-08-28T01:45:37.686Z,99.90
2022-08-28T01:48:06.611Z,99.90
2022-08-28T01:50:34.390Z,99.90
2022-08-28T01:53:01.737Z,99.90
2022-08-28T01:55:28.848Z,99.90
2022-08-28T01:57:56.497Z,99.90
2022-08-28T02:00:27.515Z,99.90
2022-08-28T02:02:56.590Z,99.90
2022-08-28T02:05:25.517Z,99.90
2022-08-28T02:07:52.605Z,99.90
2022-08-28T02:10:24.254Z,99.90
2022-08-28T02:12:52.952Z,99.90
2022-08-28T02:15:20.001Z,99.90
2022-08-28T02:17:50.412Z,99.90
2022-08-28T02:20:17.723Z,99.90
2022-08-28T02:22:45.546Z,99.90
2022-08-28T02:25:12.640Z,99.90
2022-08-28T02:27:39.893Z,99.90
2022-08-28T02:30:09.891Z,99.90
2022-08-28T02:32:36.893Z,99.90
2022-08-28T02:35:05.560Z,99.90
2022-08-28T02:37:39.593Z,99.90
2022-08-28T02:40:07.196Z,99.90
2022-08-28T02:42:34.269Z,99.90
2022-08-28T02:45:01.462Z,99.90
2022-08-28T02:47:28.387Z,99.90
2022-08-28T02:49:55.227Z,99.90
2022-08-28T02:52:23.564Z,99.90
2022-08-28T02:54:50.596Z,99.90
2022-08-28T02:57:17.593Z,99.90
2022-08-28T02:59:44.540Z,99.90
2022-08-28T03:02:11.379Z,99.90
2022-08-28T03:04:38.585Z,99.90
2022-08-28T03:07:07.443Z,99.90
2022-08-28T03:09:34.179Z,99.90
2022-08-28T03:12:00.928Z,99.90
2022-08-28T03:14:27.977Z,99.90
2022-08-28T03:16:54.700Z,99.90
2022-08-28T03:19:21.457Z,99.90
2022-08-28T03:21:48.200Z,99.90
2022-08-28T03:24:19.133Z,99.90
2022-08-28T03:26:46.138Z,99.90
2022-08-28T03:29:13.147Z,99.90
2022-08-28T03:31:39.905Z,99.90
2022-08-28T03:34:06.760Z,99.90
2022-08-28T03:36:33.928Z,99.90
2022-08-28T03:39:04.044Z,99.90
2022-08-28T03:41:31.829Z,99.90
2022-08-28T03:44:00.606Z,99.90
2022-08-28T03:46:29.488Z,99.90
2022-08-28T03:48:56.356Z,99.90
2022-08-28T03:51:29.222Z,99.90
2022-08-28T03:53:58.266Z,99.90
2022-08-28T03:56:26.635Z,99.90
2022-08-28T03:58:57.344Z,99.90
2022-08-28T04:01:24.993Z,99.90
2022-08-28T04:03:51.817Z,99.90
2022-08-28T04:06:19.659Z,99.90
2022-08-28T04:08:47.274Z,99.90
2022-08-28T04:11:14.112Z,99.90
2022-08-28T04:13:41.902Z,99.90
2022-08-28T04:16:12.176Z,99.90
2022-08-28T04:18:41.839Z,99.90
2022-08-28T04:21:11.713Z,99.90
2022-08-28T04:23:40.100Z,99.90
2022-08-28T04:26:12.397Z,99.90
2022-08-28T04:28:39.609Z,99.90
2022-08-28T04:31:08.191Z,99.90
2022-08-28T04:33:35.769Z,99.90
2022-08-28T04:36:05.531Z,99.90
2022-08-28T04:38:32.434Z,99.90
2022-08-28T04:40:59.736Z,99.90
2022-08-28T04:43:26.505Z,99.90
2022-08-28T04:45:53.291Z,99.90
2022-08-28T04:48:20.219Z,99.90
2022-08-28T04:50:48.123Z,99.90
2022-08-28T04:53:17.028Z,99.90
2022-08-28T04:55:54.629Z,99.90
2022-08-28T04:58:23.941Z,99.90
2022-08-28T05:00:53.028Z,99.90
2022-08-28T05:03:20.761Z,99.90
2022-08-28T05:05:50.277Z,99.90
2022-08-28T05:08:18.911Z,99.90
2022-08-28T05:10:46.945Z,99.90
2022-08-28T05:13:15.723Z,99.90
2022-08-28T05:15:44.674Z,99.90
2022-08-28T05:18:14.231Z,99.90
2022-08-28T05:20:44.687Z,99.90
2022-08-28T05:23:12.740Z,99.90
2022-08-28T05:25:43.168Z,99.90
2022-08-28T05:28:12.207Z,99.90
2022-08-28T05:30:40.756Z,99.90
2022-08-28T05:33:09.202Z,99.90
2022-08-28T05:35:38.750Z,99.90
2022-08-28T05:38:06.790Z,99.90
2022-08-28T05:40:34.451Z,99.90
2022-08-28T05:43:01.368Z,99.90
2022-08-28T05:45:28.071Z,99.90
2022-08-28T05:47:54.967Z,99.90
2022-08-28T05:50:21.784Z,99.90
2022-08-28T05:52:48.538Z,99.90
2022-08-28T05:55:15.510Z,99.90
2022-08-28T05:57:42.377Z,99.90
2022-08-28T06:00:13.346Z,99.90
2022-08-28T06:02:41.797Z,99.90
2022-08-28T06:05:09.670Z,99.90
2022-08-28T06:07:41.103Z,99.90
2022-08-28T06:10:10.479Z,99.90
2022-08-28T06:12:38.239Z,99.90
2022-08-28T06:15:05.966Z,99.90
2022-08-28T06:17:32.727Z,99.90
2022-08-28T06:19:59.556Z,99.90
2022-08-28T06:22:26.261Z,99.90
2022-08-28T06:24:53.869Z,99.90
2022-08-28T06:27:20.659Z,99.90
2022-08-28T06:29:47.636Z,99.90
2022-08-28T06:32:14.563Z,99.90
2022-08-28T06:34:41.755Z,99.90
2022-08-28T06:37:09.807Z,99.90
2022-08-28T06:39:36.629Z,99.90
2022-08-28T06:42:03.698Z,99.90
2022-08-28T06:44:32.126Z,99.90
2022-08-28T06:47:00.302Z,99.90
2022-08-28T06:49:27.125Z,99.90
2022-08-28T06:51:54.134Z,99.90
2022-08-28T06:54:23.298Z,99.90
2022-08-28T06:56:51.762Z,99.90
2022-08-28T06:59:18.604Z,99.90
2022-08-28T07:01:45.497Z,99.90
2022-08-28T07:04:14.513Z,99.90
2022-08-28T07:06:46.718Z,99.90
2022-08-28T07:09:14.528Z,99.90
2022-08-28T07:11:45.420Z,99.90
2022-08-28T07:14:12.409Z,99.90
2022-08-28T07:16:39.791Z,99.90
2022-08-28T07:19:08.452Z,99.90
2022-08-28T07:21:39.494Z,99.90
2022-08-28T07:24:08.467Z,99.90
2022-08-28T07:26:35.859Z,99.90
2022-08-28T07:29:11.087Z,99.90
2022-08-28T07:31:44.297Z,99.90
2022-08-28T07:34:13.492Z,99.90
2022-08-28T07:36:41.128Z,99.90
2022-08-28T07:39:09.774Z,99.90
2022-08-28T07:41:39.335Z,99.90
2022-08-28T07:44:26.125Z,99.90
2022-08-28T07:46:54.837Z,99.90
2022-08-28T07:49:22.550Z,99.90
2022-08-28T07:51:49.484Z,99.90
2022-08-28T07:54:21.216Z,99.90
2022-08-28T07:56:47.954Z,99.90
2022-08-28T07:59:16.837Z,99.90
2022-08-28T08:01:46.517Z,99.90
2022-08-28T08:04:16.176Z,99.90
2022-08-28T08:06:44.327Z,99.90
2022-08-28T08:09:14.307Z,99.90
2022-08-28T08:11:42.378Z,99.90
2022-08-28T08:14:09.949Z,99.90
2022-08-28T08:16:39.548Z,99.90
2022-08-28T08:19:09.774Z,99.90
2022-08-28T08:21:37.442Z,99.90
2022-08-28T08:24:04.432Z,99.90
2022-08-28T08:26:31.185Z,99.90
2022-08-28T08:28:58.924Z,99.90
2022-08-28T08:31:29.440Z,99.90
2022-08-28T08:34:01.432Z,99.90
2022-08-28T08:36:30.216Z,99.90
2022-08-28T08:39:00.057Z,99.90
2022-08-28T08:41:48.660Z,99.90
2022-08-28T08:44:33.227Z,99.90
2022-08-28T08:47:07.858Z,99.90
2022-08-28T08:49:42.086Z,99.90
2022-08-28T08:52:12.020Z,99.90
2022-08-28T08:55:09.910Z,99.90
2022-08-28T08:57:38.958Z,99.90
2022-08-28T09:00:12.274Z,99.90
2022-08-28T09:02:58.632Z,99.90
2022-08-28T09:05:46.673Z,99.90
2022-08-28T09:08:33.921Z,99.90
2022-08-28T09:11:13.783Z,99.90
2022-08-28T09:14:20.641Z,99.90
2022-08-28T09:16:55.881Z,99.90
2022-08-28T09:19:22.884Z,99.90
2022-08-28T09:21:51.645Z,99.90
2022-08-28T09:24:26.621Z,99.90
2022-08-28T09:27:11.081Z,99.90
2022-08-28T09:29:47.042Z,99.90
2022-08-28T09:32:29.780Z,99.90
2022-08-28T09:35:24.475Z,99.90
2022-08-28T09:37:51.628Z,99.90
2022-08-28T09:40:51.151Z,99.90
2022-08-28T09:43:27.846Z,99.90
2022-08-28T09:46:03.000Z,99.90
2022-08-28T09:48:43.398Z,99.90
2022-08-28T09:51:22.517Z,99.90
2022-08-28T09:53:52.450Z,99.90
2022-08-28T09:56:34.258Z,99.90
2022-08-28T09:59:08.576Z,99.90
2022-08-28T10:01:45.176Z,99.90
2022-08-28T10:04:18.094Z,99.90
2022-08-28T10:07:26.799Z,99.90
2022-08-28T10:10:06.450Z,99.90
2022-08-28T10:13:00.212Z,99.90
2022-08-28T10:15:43.267Z,99.90
2022-08-28T10:18:17.927Z,99.90
2022-08-28T10:21:13.008Z,99.90
2022-08-28T10:24:13.208Z,99.90
2022-08-28T10:26:55.244Z,99.90
2022-08-28T10:30:05.208Z,99.90
2022-08-28T10:32:45.546Z,99.90
2022-08-28T10:35:18.199Z,99.90
2022-08-28T10:38:16.893Z,99.90
2022-08-28T10:41:04.491Z,99.90
2022-08-28T10:43:37.493Z,99.90
2022-08-28T10:46:10.337Z,99.90
2022-08-28T10:48:46.488Z,99.90
2022-08-28T10:51:43.652Z,99.90
2022-08-28T10:54:23.456Z,99.90
2022-08-28T10:57:24.767Z,99.90
2022-08-28T10:59:54.131Z,99.90
2022-08-28T11:02:25.101Z,99.90
2022-08-28T11:04:58.250Z,99.90
2022-08-28T11:07:49.487Z,99.90
2022-08-28T11:10:19.276Z,99.90
2022-08-28T11:12:48.158Z,99.90
2022-08-28T11:15:34.204Z,99.90
2022-08-28T11:18:15.886Z,99.90
2022-08-28T11:20:56.730Z,99.90
2022-08-28T11:23:41.931Z,99.90
2022-08-28T11:26:12.353Z,99.90
2022-08-28T11:28:47.241Z,99.90
2022-08-28T11:31:18.172Z,99.90
2022-08-28T11:33:58.822Z,97.30
2022-08-28T11:36:28.043Z,97.40
2022-08-28T11:38:54.874Z,95.70
2022-08-28T11:41:30.668Z,96.80
2022-08-28T11:44:09.419Z,97.20
2022-08-28T11:47:16.404Z,95.60
2022-08-28T11:49:44.620Z,94.60
2022-08-28T11:52:23.528Z,93.10
2022-08-28T11:55:22.254Z,92.90
2022-08-28T11:58:14.597Z,90.40
2022-08-28T12:01:19.546Z,90.10
2022-08-28T12:04:03.868Z,88.70
2022-08-28T12:06:52.738Z,88.60
2022-08-28T12:09:39.024Z,85.00
2022-08-28T12:12:10.799Z,85.20
2022-08-28T12:14:40.904Z,85.80
2022-08-28T12:17:20.181Z,88.50
2022-08-28T12:20:26.969Z,87.90
2022-08-28T12:22:56.811Z,82.10
2022-08-28T12:25:40.449Z,81.50
2022-08-28T12:28:29.476Z,87.90
2022-08-28T12:31:05.189Z,90.80
2022-08-28T12:33:48.397Z,87.00
2022-08-28T12:36:18.538Z,84.10
2022-08-28T12:38:53.686Z,84.70
2022-08-28T12:41:22.351Z,88.10
2022-08-28T12:43:53.437Z,87.10
2022-08-28T12:46:40.424Z,83.60
2022-08-28T12:49:30.219Z,82.80
2022-08-28T12:52:17.036Z,88.10
2022-08-28T12:54:46.264Z,85.50
2022-08-28T12:57:15.955Z,82.60
2022-08-28T12:59:45.644Z,82.00
2022-08-28T13:02:28.158Z,79.80
2022-08-28T13:04:55.607Z,80.40
2022-08-28T13:07:38.318Z,84.80
2022-08-28T13:10:20.899Z,84.10
2022-08-28T13:12:56.874Z,80.90
2022-08-28T13:15:55.167Z,80.70
2022-08-28T13:18:50.361Z,79.00
2022-08-28T13:21:32.721Z,82.20
2022-08-28T13:24:21.420Z,77.30
2022-08-28T13:26:59.165Z,75.00
2022-08-28T13:29:26.301Z,79.70
2022-08-28T13:32:00.813Z,78.00
2022-08-28T13:34:36.646Z,78.30
2022-08-28T13:37:18.522Z,75.40
2022-08-28T13:39:47.674Z,76.50
2022-08-28T13:42:16.874Z,73.50
2022-08-28T13:44:50.629Z,73.70
2022-08-28T13:47:17.693Z,77.00
2022-08-28T13:49:44.803Z,74.90
2022-08-28T13:52:12.192Z,77.30
2022-08-28T13:54:43.509Z,77.80
2022-08-28T13:57:11.030Z,78.70
2022-08-28T13:59:37.914Z,79.20
2022-08-28T14:02:25.342Z,78.30
2022-08-28T14:04:52.191Z,80.20
2022-08-28T14:07:19.050Z,82.40
2022-08-28T14:09:45.968Z,83.40
2022-08-28T14:12:12.903Z,83.20
2022-08-28T14:14:39.762Z,81.10
2022-08-28T14:17:08.601Z,80.50
2022-08-28T14:19:35.778Z,81.90
2022-08-28T14:22:02.722Z,86.60
2022-08-28T14:24:29.839Z,85.10
2022-08-28T14:26:57.114Z,86.00
2022-08-28T14:29:23.987Z,86.90
2022-08-28T14:31:51.025Z,88.90
2022-08-28T14:34:21.482Z,89.30
2022-08-28T14:36:55.012Z,88.10
2022-08-28T14:39:25.047Z,90.00
2022-08-28T14:41:53.246Z,91.10
2022-08-28T14:44:21.694Z,87.20
2022-08-28T14:46:58.122Z,85.60
2022-08-28T14:49:26.493Z,80.60
2022-08-28T14:51:54.931Z,79.70
2022-08-28T14:54:24.006Z,80.00
2022-08-28T14:56:52.468Z,77.80
2022-08-28T14:59:24.529Z,77.00
2022-08-28T15:01:53.096Z,80.40
2022-08-28T15:04:22.808Z,78.00
2022-08-28T15:06:51.169Z,82.60
2022-08-28T15:09:19.201Z,82.70
2022-08-28T15:11:46.310Z,82.30
2022-08-28T15:14:13.674Z,83.30
2022-08-28T15:16:43.552Z,85.10
2022-08-28T15:19:12.296Z,87.30
2022-08-28T15:21:44.481Z,88.00
2022-08-28T15:24:11.596Z,91.10
2022-08-28T15:26:40.046Z,90.10
2022-08-28T15:29:07.811Z,91.30
2022-08-28T15:31:37.736Z,94.80
2022-08-28T15:34:17.104Z,98.40
2022-08-28T15:36:45.841Z,99.90
2022-08-28T15:39:40.703Z,99.90
2022-08-28T15:42:09.000Z,99.90
2022-08-28T15:44:35.960Z,99.90
2022-08-28T15:47:04.952Z,99.90
2022-08-28T15:49:36.191Z,99.90
2022-08-28T15:52:11.530Z,99.90
2022-08-28T15:54:38.368Z,99.90
2022-08-28T15:57:05.370Z,99.90
2022-08-28T15:59:48.551Z,99.90
2022-08-28T16:02:16.287Z,99.90
2022-08-28T16:04:43.105Z,99.90
2022-08-28T16:07:09.913Z,99.90
2022-08-28T16:09:36.892Z,99.90
2022-08-28T16:12:04.039Z,99.90
2022-08-28T16:14:33.058Z,99.90
2022-08-28T16:17:05.994Z,99.90
2022-08-28T16:19:39.012Z,99.90
2022-08-28T16:22:06.456Z,99.90
2022-08-28T16:24:33.594Z,99.90
2022-08-28T16:27:00.489Z,99.90
2022-08-28T16:29:27.395Z,99.90
2022-08-28T16:31:54.290Z,99.90
2022-08-28T16:34:21.335Z,99.90
2022-08-28T16:36:48.420Z,99.90
2022-08-28T16:39:15.421Z,99.90
2022-08-28T16:41:46.188Z,99.90
2022-08-28T16:44:13.015Z,99.90
2022-08-28T16:46:39.906Z,99.90
2022-08-28T16:49:06.947Z,99.90
2022-08-28T16:51:33.871Z,99.90
2022-08-28T16:54:01.023Z,99.90
2022-08-28T16:56:27.794Z,99.90
2022-08-28T16:58:54.609Z,99.90
2022-08-28T17:01:24.090Z,99.90
2022-08-28T17:03:53.205Z,99.90
2022-08-28T17:06:24.052Z,99.90
2022-08-28T17:08:55.922Z,99.90
2022-08-28T17:11:27.140Z,99.90
2022-08-28T17:13:55.326Z,99.90
2022-08-28T17:16:23.610Z,99.90
2022-08-28T17:18:52.116Z,99.90
2022-08-28T17:21:39.547Z,99.90
2022-08-28T17:24:06.992Z,99.90
2022-08-28T17:26:33.923Z,99.90
2022-08-28T17:29:00.719Z,99.90
2022-08-28T17:31:27.916Z,99.90
2022-08-28T17:33:54.740Z,99.90
2022-08-28T17:36:33.512Z,99.90
2022-08-28T17:39:07.527Z,99.90
2022-08-28T17:41:35.339Z,99.90
2022-08-28T17:44:02.678Z,99.90
2022-08-28T17:46:31.861Z,99.90
2022-08-28T17:49:03.294Z,99.90
2022-08-28T17:51:43.026Z,99.90
2022-08-28T17:54:15.553Z,99.90
2022-08-28T17:56:42.501Z,99.90
2022-08-28T17:59:10.342Z,99.90
2022-08-28T18:01:38.344Z,99.90
2022-08-28T18:04:05.920Z,99.90
2022-08-28T18:06:33.016Z,99.90
2022-08-28T18:09:00.400Z,99.90
2022-08-28T18:11:28.133Z,99.90
2022-08-28T18:13:55.090Z,99.90
2022-08-28T18:16:22.003Z,99.90
2022-08-28T18:18:49.191Z,99.90
2022-08-28T18:21:16.016Z,99.90
2022-08-28T18:23:42.826Z,99.90
2022-08-28T18:26:09.832Z,99.90
2022-08-28T18:28:37.447Z,99.90
2022-08-28T18:31:06.359Z,99.90
2022-08-28T18:33:34.234Z,99.90
2022-08-28T18:36:01.934Z,99.90
2022-08-28T18:38:29.819Z,99.90
2022-08-28T18:40:59.585Z,99.90
2022-08-28T18:43:26.451Z,99.90
2022-08-28T18:45:53.589Z,99.90
2022-08-28T18:48:20.642Z,99.90
2022-08-28T18:50:48.282Z,99.90
2022-08-28T18:53:16.857Z,99.90
2022-08-28T18:55:43.813Z,99.90
2022-08-28T18:58:14.014Z,99.90
2022-08-28T19:00:42.227Z,99.90
2022-08-28T19:03:09.379Z,99.90
2022-08-28T19:05:37.952Z,99.90
2022-08-28T19:08:05.092Z,99.90
2022-08-28T19:10:34.293Z,99.90
2022-08-28T19:13:03.273Z,99.90
2022-08-28T19:15:31.118Z,99.90
2022-08-28T19:18:00.340Z,99.90
2022-08-28T19:20:28.701Z,99.90
2022-08-28T19:22:56.947Z,99.90
2022-08-28T19:25:28.632Z,99.90
2022-08-28T19:28:01.631Z,99.90
2022-08-28T19:30:33.185Z,99.90
2022-08-28T19:33:02.275Z,99.90
2022-08-28T19:35:29.267Z,99.90
2022-08-28T19:37:56.137Z,99.90
2022-08-28T19:40:23.553Z,99.90
2022-08-28T19:42:51.233Z,99.90
2022-08-28T19:45:18.310Z,99.90
2022-08-28T19:47:46.917Z,99.90
2022-08-28T19:50:14.844Z,99.90
2022-08-28T19:52:43.444Z,99.90
2022-08-28T19:55:19.305Z,99.90
2022-08-28T19:57:48.116Z,99.90
2022-08-28T20:00:18.150Z,99.90
2022-08-28T20:02:45.667Z,99.90
2022-08-28T20:05:12.642Z,99.90
2022-08-28T20:07:39.686Z,99.90
2022-08-28T20:10:07.336Z,99.90
2022-08-28T20:12:34.540Z,99.90
2022-08-28T20:15:03.656Z,99.90
2022-08-28T20:17:31.121Z,99.90
2022-08-28T20:20:02.860Z,99.90
2022-08-28T20:22:31.745Z,99.90
2022-08-28T20:24:59.878Z,99.90
2022-08-28T20:27:28.141Z,99.90
2022-08-28T20:29:54.870Z,99.90
2022-08-28T20:32:21.563Z,99.90
2022-08-28T20:34:48.446Z,99.90
2022-08-28T20:37:16.775Z,99.90
2022-08-28T20:39:43.574Z,99.90
2022-08-28T20:42:11.695Z,99.90
2022-08-28T20:44:38.410Z,99.90
2022-08-28T20:47:05.506Z,99.90
2022-08-28T20:49:32.314Z,99.90
2022-08-28T20:52:05.862Z,99.90
2022-08-28T20:54:36.889Z,99.90
2022-08-28T20:57:07.573Z,99.90
2022-08-28T20:59:39.873Z,99.90
2022-08-28T21:02:28.853Z,99.90
2022-08-28T21:04:55.949Z,99.90
2022-08-28T21:07:24.713Z,99.90
2022-08-28T21:10:06.696Z,99.90
2022-08-28T21:12:39.360Z,99.90
2022-08-28T21:15:09.313Z,99.90
2022-08-28T21:17:36.402Z,99.90
2022-08-28T21:20:12.050Z,99.90
2022-08-28T21:22:40.177Z,99.90
2022-08-28T21:25:09.009Z,99.90
2022-08-28T21:27:36.786Z,99.90
2022-08-28T21:30:05.564Z,99.90
2022-08-28T21:32:33.826Z,99.90
2022-08-28T21:35:02.169Z,99.90
2022-08-28T21:37:29.119Z,99.90
2022-08-28T21:39:56.646Z,99.90
2022-08-28T21:42:23.911Z,99.90
2022-08-28T21:44:51.978Z,99.90
2022-08-28T21:47:21.317Z,99.90
2022-08-28T21:49:50.035Z,99.90
2022-08-28T21:52:18.316Z,99.90
2022-08-28T21:54:45.157Z,99.90
2022-08-28T21:57:11.929Z,99.90
2022-08-28T21:59:38.956Z,99.90
2022-08-28T22:02:06.118Z,99.90
2022-08-28T22:04:33.033Z,99.90
2022-08-28T22:06:59.744Z,99.90
2022-08-28T22:09:26.417Z,99.90
2022-08-28T22:11:53.363Z,99.90
2022-08-28T22:14:20.115Z,99.90
2022-08-28T22:16:46.855Z,99.90
2022-08-28T22:19:13.713Z,99.90
2022-08-28T22:21:58.940Z,99.90
2022-08-28T22:24:25.698Z,99.90
2022-08-28T22:26:57.498Z,99.90
2022-08-28T22:29:25.127Z,99.90
2022-08-28T22:31:52.665Z,99.90
2022-08-28T22:34:19.822Z,99.90
2022-08-28T22:36:46.972Z,99.90
2022-08-28T22:39:13.797Z,99.90
2022-08-28T22:41:40.645Z,99.90
2022-08-28T22:44:07.598Z,99.90
2022-08-28T22:46:35.192Z,99.90
2022-08-28T22:49:01.903Z,99.90
2022-08-28T22:51:28.539Z,99.90
2022-08-28T22:53:55.995Z,99.90
2022-08-28T22:56:22.891Z,99.90
2022-08-28T22:58:49.622Z,99.90
2022-08-28T23:01:18.082Z,99.90
2022-08-28T23:03:45.898Z,99.90
2022-08-28T23:06:13.653Z,99.90
2022-08-28T23:08:40.525Z,99.90
2022-08-28T23:11:07.859Z,99.90
2022-08-28T23:13:34.815Z,99.90
2022-08-28T23:16:02.512Z,99.90
2022-08-28T23:18:38.003Z,99.90
2022-08-28T23:21:13.301Z,99.90
2022-08-28T23:23:39.905Z,99.90
2022-08-28T23:26:11.798Z,99.90
2022-08-28T23:28:39.040Z,99.90
2022-08-28T23:31:05.903Z,99.90
2022-08-28T23:33:32.675Z,99.90
2022-08-28T23:35:59.393Z,99.90
2022-08-28T23:38:26.258Z,99.90
2022-08-28T23:40:52.874Z,99.90
2022-08-28T23:43:19.753Z,99.90
2022-08-28T23:45:47.752Z,99.90
2022-08-28T23:48:15.255Z,99.90
2022-08-28T23:50:42.425Z,99.90
2022-08-28T23:53:10.596Z,99.90
2022-08-28T23:55:37.721Z,99.90
2022-08-28T23:58:05.349Z,99.90
